createdAt,value
2018-02-24T00:02:17.194Z,-0.30
2018-02-24T00:04:44.948Z,-0.35
2018-02-24T00:07:12.970Z,-0.40
2018-02-24T00:09:41.162Z,-0.41
2018-02-24T00:12:08.820Z,-0.30
2018-02-24T00:14:36.375Z,-0.37
2018-02-24T00:17:04.204Z,-0.50
2018-02-24T00:19:32.508Z,-0.45
2018-02-24T00:22:00.078Z,-0.46
2018-02-24T00:24:27.858Z,-0.22
2018-02-24T00:26:55.663Z,-0.28
2018-02-24T00:29:23.283Z,-0.44
2018-02-24T00:31:50.913Z,-0.50
2018-02-24T00:34:18.494Z,-0.44
2018-02-24T00:36:46.178Z,-0.51
2018-02-24T00:39:14.590Z,-0.43
2018-02-24T00:41:42.243Z,-0.53
2018-02-24T00:44:10.082Z,-0.49
2018-02-24T00:46:38.051Z,-0.57
2018-02-24T00:49:05.614Z,-0.52
2018-02-24T00:51:33.215Z,-0.58
2018-02-24T00:54:01.501Z,-0.34
2018-02-24T00:56:29.113Z,-0.39
2018-02-24T00:58:56.802Z,-0.37
2018-02-24T01:01:24.624Z,-0.37
2018-02-24T01:03:52.470Z,-0.51
2018-02-24T01:06:20.408Z,-0.39
2018-02-24T01:08:47.955Z,-0.55
2018-02-24T01:11:15.628Z,-0.25
2018-02-24T01:13:43.204Z,-0.42
2018-02-24T01:16:10.810Z,-0.57
2018-02-24T01:18:38.643Z,-0.55
2018-02-24T01:21:06.825Z,-0.67
2018-02-24T01:23:34.402Z,-0.67
2018-02-24T01:26:01.945Z,-0.64
2018-02-24T01:28:29.688Z,-0.67
2018-02-24T01:30:57.555Z,-0.66
2018-02-24T01:33:25.921Z,-0.63
2018-02-24T01:35:53.863Z,-0.66
2018-02-24T01:38:22.547Z,-0.57
2018-02-24T01:40:50.638Z,-0.59
2018-02-24T01:43:18.856Z,-0.71
2018-02-24T01:45:46.414Z,-0.65
2018-02-24T01:48:13.955Z,-0.69
2018-02-24T01:50:42.754Z,-0.66
2018-02-24T01:53:10.614Z,-0.74
2018-02-24T01:55:38.165Z,-0.76
2018-02-24T01:58:05.744Z,-0.77
2018-02-24T02:00:33.484Z,-0.67
2018-02-24T02:03:01.207Z,-0.70
2018-02-24T02:05:29.128Z,-0.67
2018-02-24T02:07:56.943Z,-0.71
2018-02-24T02:10:24.547Z,-0.69
2018-02-24T02:12:52.457Z,-0.66
2018-02-24T02:15:20.079Z,-0.66
2018-02-24T02:17:47.695Z,-0.63
2018-02-24T02:20:15.494Z,-0.66
2018-02-24T02:22:43.345Z,-0.66
2018-02-24T02:25:11.018Z,-0.73
2018-02-24T02:27:38.638Z,-0.77
2018-02-24T02:30:06.438Z,-0.67
2018-02-24T02:32:34.101Z,-0.71
2018-02-24T02:35:02.318Z,-0.64
2018-02-24T02:37:30.553Z,-0.62
2018-02-24T02:39:58.306Z,-0.52
2018-02-24T02:42:26.125Z,-0.46
2018-02-24T02:44:54.104Z,-0.64
2018-02-24T02:47:22.200Z,-0.69
2018-02-24T02:49:50.031Z,-0.65
2018-02-24T02:52:17.761Z,-0.70
2018-02-24T02:54:45.469Z,-0.71
2018-02-24T02:57:13.305Z,-0.67
2018-02-24T02:59:41.267Z,-0.61
2018-02-24T03:02:09.432Z,-0.79
2018-02-24T03:04:37.143Z,-0.72
2018-02-24T03:07:04.955Z,-0.74
2018-02-24T03:09:32.722Z,-0.91
2018-02-24T03:12:00.468Z,-0.95
2018-02-24T03:14:28.148Z,-1.03
2018-02-24T03:16:55.953Z,-1.08
2018-02-24T03:19:23.684Z,-1.13
2018-02-24T03:21:51.428Z,-1.19
2018-02-24T03:24:19.133Z,-1.22
2018-02-24T03:26:47.030Z,-1.22
2018-02-24T03:29:14.892Z,-1.23
2018-02-24T03:31:42.486Z,-1.14
2018-02-24T03:34:10.519Z,-1.23
2018-02-24T03:36:38.288Z,-1.26
2018-02-24T03:39:06.222Z,-1.40
2018-02-24T03:41:33.757Z,-1.36
2018-02-24T03:44:01.969Z,-1.53
2018-02-24T03:46:29.740Z,-1.66
2018-02-24T03:48:57.468Z,-1.75
2018-02-24T03:51:25.045Z,-1.70
2018-02-24T03:53:52.834Z,-1.80
2018-02-24T03:56:20.450Z,-1.84
2018-02-24T03:58:48.156Z,-1.94
2018-02-24T04:01:15.814Z,-2.02
2018-02-24T04:03:43.622Z,-1.90
2018-02-24T04:06:11.519Z,-1.88
2018-02-24T04:08:39.318Z,-2.06
2018-02-24T04:11:07.029Z,-2.02
2018-02-24T04:13:34.580Z,-1.97
2018-02-24T04:16:02.192Z,-1.93
2018-02-24T04:18:30.044Z,-1.95
2018-02-24T04:20:58.030Z,-2.17
2018-02-24T04:23:25.685Z,-2.03
2018-02-24T04:25:53.526Z,-2.25
2018-02-24T04:28:21.602Z,-2.11
2018-02-24T04:30:49.608Z,-2.16
2018-02-24T04:33:17.331Z,-2.16
2018-02-24T04:35:44.979Z,-2.29
2018-02-24T04:38:12.838Z,-2.25
2018-02-24T04:40:40.684Z,-2.28
2018-02-24T04:43:08.424Z,-2.19
2018-02-24T04:45:36.090Z,-2.24
2018-02-24T04:48:03.625Z,-2.33
2018-02-24T04:50:31.459Z,-2.20
2018-02-24T04:52:59.969Z,-2.27
2018-02-24T04:55:27.600Z,-2.34
2018-02-24T04:57:55.135Z,-2.27
2018-02-24T05:00:22.746Z,-2.31
2018-02-24T05:02:50.318Z,-2.26
2018-02-24T05:05:18.019Z,-2.45
2018-02-24T05:07:45.625Z,-2.37
2018-02-24T05:10:13.205Z,-2.30
2018-02-24T05:12:40.883Z,-2.35
2018-02-24T05:15:08.690Z,-2.38
2018-02-24T05:17:36.410Z,-2.31
2018-02-24T05:20:04.670Z,-2.40
2018-02-24T05:22:32.264Z,-2.38
2018-02-24T05:25:00.333Z,-2.42
2018-02-24T05:27:27.957Z,-2.34
2018-02-24T05:29:55.744Z,-2.33
2018-02-24T05:32:23.276Z,-2.65
2018-02-24T05:34:50.895Z,-2.51
2018-02-24T05:37:18.648Z,-2.60
2018-02-24T05:39:46.328Z,-2.53
2018-02-24T05:42:14.118Z,-2.69
2018-02-24T05:44:41.874Z,-2.71
2018-02-24T05:47:09.524Z,-2.70
2018-02-24T05:49:37.698Z,-2.57
2018-02-24T05:52:05.568Z,-2.69
2018-02-24T05:54:33.268Z,-2.75
2018-02-24T05:57:00.965Z,-2.79
2018-02-24T05:59:28.669Z,-2.84
2018-02-24T06:01:56.230Z,-3.00
2018-02-24T06:04:23.933Z,-3.03
2018-02-24T06:06:51.808Z,-2.95
2018-02-24T06:09:19.444Z,-3.13
2018-02-24T06:11:47.028Z,-3.14
2018-02-24T06:14:14.565Z,-3.13
2018-02-24T06:16:42.784Z,-3.24
2018-02-24T06:19:10.552Z,-3.29
2018-02-24T06:21:38.309Z,-3.30
2018-02-24T06:24:05.979Z,-3.16
2018-02-24T06:26:34.569Z,-3.31
2018-02-24T06:29:02.239Z,-3.35
2018-02-24T06:31:29.908Z,-3.38
2018-02-24T06:33:57.583Z,-3.49
2018-02-24T06:36:25.229Z,-3.43
2018-02-24T06:38:52.876Z,-3.38
2018-02-24T06:41:20.733Z,-3.43
2018-02-24T06:43:48.419Z,-3.45
2018-02-24T06:46:16.095Z,-3.39
2018-02-24T06:48:43.838Z,-3.36
2018-02-24T06:51:11.464Z,-3.35
2018-02-24T06:53:39.057Z,-3.44
2018-02-24T06:56:06.874Z,-3.34
2018-02-24T06:58:34.539Z,-3.31
2018-02-24T07:01:02.189Z,-3.36
2018-02-24T07:03:30.132Z,-3.18
2018-02-24T07:05:57.780Z,-3.33
2018-02-24T07:08:26.054Z,-3.29
2018-02-24T07:10:53.921Z,-3.26
2018-02-24T07:13:21.630Z,-3.25
2018-02-24T07:15:49.191Z,-3.21
2018-02-24T07:18:16.923Z,-3.11
2018-02-24T07:20:44.629Z,-3.09
2018-02-24T07:23:12.249Z,-3.04
2018-02-24T07:25:40.892Z,-2.91
2018-02-24T07:28:08.424Z,-2.91
2018-02-24T07:30:37.049Z,-2.93
2018-02-24T07:33:04.848Z,-2.80
2018-02-24T07:35:32.464Z,-2.78
2018-02-24T07:38:00.228Z,-2.68
2018-02-24T07:40:28.078Z,-2.66
2018-02-24T07:42:55.734Z,-2.61
2018-02-24T07:45:23.465Z,-2.61
2018-02-24T07:47:51.198Z,-2.66
2018-02-24T07:50:18.935Z,-2.58
2018-02-24T07:52:46.610Z,-2.34
2018-02-24T07:55:14.644Z,-2.29
2018-02-24T07:57:43.233Z,-2.21
2018-02-24T08:00:10.789Z,-2.24
2018-02-24T08:02:38.554Z,-1.89
2018-02-24T08:05:06.183Z,-1.70
2018-02-24T08:07:33.842Z,-1.81
2018-02-24T08:10:02.323Z,-1.58
2018-02-24T08:12:30.087Z,-1.46
2018-02-24T08:14:57.623Z,-1.50
2018-02-24T08:17:25.298Z,-1.43
2018-02-24T08:19:53.055Z,-1.14
2018-02-24T08:22:20.870Z,-1.25
2018-02-24T08:24:48.640Z,-0.99
2018-02-24T08:27:16.275Z,-0.54
2018-02-24T08:29:44.084Z,-0.66
2018-02-24T08:32:11.764Z,-0.50
2018-02-24T08:34:39.565Z,0.29
2018-02-24T08:37:07.304Z,0.12
2018-02-24T08:39:35.068Z,0.76
2018-02-24T08:42:02.924Z,0.55
2018-02-24T08:44:30.702Z,0.48
2018-02-24T08:46:58.285Z,0.73
2018-02-24T08:49:25.909Z,1.44
2018-02-24T08:51:54.279Z,1.51
2018-02-24T08:54:21.818Z,2.38
2018-02-24T08:56:49.505Z,1.85
2018-02-24T08:59:17.391Z,1.36
2018-02-24T09:01:45.174Z,1.19
2018-02-24T09:04:13.014Z,1.47
2018-02-24T09:06:40.685Z,1.47
2018-02-24T09:09:08.474Z,1.44
2018-02-24T09:11:36.443Z,2.18
2018-02-24T09:14:04.139Z,2.23
2018-02-24T09:16:32.028Z,1.73
2018-02-24T09:18:59.765Z,1.90
2018-02-24T09:21:27.293Z,1.93
2018-02-24T09:23:55.369Z,2.65
2018-02-24T09:26:23.448Z,2.19
2018-02-24T09:28:51.089Z,2.69
2018-02-24T09:31:19.083Z,2.63
2018-02-24T09:33:46.759Z,3.13
2018-02-24T09:36:15.353Z,3.26
2018-02-24T09:38:43.360Z,3.66
2018-02-24T09:41:11.147Z,4.46
2018-02-24T09:43:38.700Z,4.51
2018-02-24T09:46:06.474Z,4.01
2018-02-24T09:48:34.080Z,2.82
2018-02-24T09:51:03.585Z,3.24
2018-02-24T09:53:31.310Z,3.84
2018-02-24T09:55:59.048Z,4.23
2018-02-24T09:58:26.774Z,3.65
2018-02-24T10:00:54.590Z,3.59
2018-02-24T10:03:22.445Z,3.93
2018-02-24T10:05:50.091Z,4.38
2018-02-24T10:08:17.811Z,4.62
2018-02-24T10:10:45.843Z,4.24
2018-02-24T10:13:13.635Z,4.75
2018-02-24T10:15:42.973Z,5.42
2018-02-24T10:18:10.880Z,5.49
2018-02-24T10:20:38.530Z,5.44
2018-02-24T10:23:06.971Z,4.84
2018-02-24T10:25:34.859Z,4.03
2018-02-24T10:28:02.574Z,5.40
2018-02-24T10:30:30.204Z,6.34
2018-02-24T10:32:58.443Z,6.27
2018-02-24T10:35:26.081Z,6.27
2018-02-24T10:37:53.707Z,7.32
2018-02-24T10:40:21.866Z,6.35
2018-02-24T10:42:49.534Z,5.67
2018-02-24T10:45:17.095Z,6.48
2018-02-24T10:47:46.001Z,6.30
2018-02-24T10:50:13.779Z,6.83
2018-02-24T10:52:41.891Z,7.00
2018-02-24T10:55:09.930Z,8.29
2018-02-24T10:57:37.924Z,6.41
2018-02-24T11:00:05.624Z,6.37
2018-02-24T11:02:33.390Z,7.61
2018-02-24T11:05:01.221Z,6.77
2018-02-24T11:07:28.894Z,7.03
2018-02-24T11:09:56.448Z,6.53
2018-02-24T11:12:24.271Z,7.25
2018-02-24T11:14:52.074Z,7.31
2018-02-24T11:17:19.806Z,8.13
2018-02-24T11:19:47.439Z,7.82
2018-02-24T11:22:15.084Z,7.05
2018-02-24T11:24:42.732Z,6.76
2018-02-24T11:27:10.505Z,7.54
2018-02-24T11:29:38.409Z,7.81
2018-02-24T11:32:06.245Z,7.77
2018-02-24T11:34:33.979Z,8.61
2018-02-24T11:37:01.766Z,8.54
2018-02-24T11:39:35.068Z,8.47
2018-02-24T11:42:02.742Z,7.75
2018-02-24T11:44:30.565Z,9.29
2018-02-24T11:46:58.426Z,7.36
2018-02-24T11:49:26.141Z,8.07
2018-02-24T11:51:53.709Z,7.98
2018-02-24T11:54:21.440Z,8.23
2018-02-24T11:56:49.116Z,8.87
2018-02-24T11:59:16.749Z,8.30
2018-02-24T12:01:44.737Z,8.64
2018-02-24T12:04:12.460Z,9.23
2018-02-24T12:06:40.494Z,8.97
2018-02-24T12:09:08.205Z,9.34
2018-02-24T12:11:35.980Z,9.89
2018-02-24T12:14:03.694Z,9.20
2018-02-24T12:16:31.332Z,10.42
2018-02-24T12:18:59.173Z,8.39
2018-02-24T12:21:27.118Z,8.37
2018-02-24T12:23:54.856Z,8.70
2018-02-24T12:26:22.659Z,8.61
2018-02-24T12:28:50.380Z,8.59
2018-02-24T12:31:18.228Z,10.36
2018-02-24T12:33:46.052Z,10.12
2018-02-24T12:36:14.938Z,7.85
2018-02-24T12:38:42.669Z,7.98
2018-02-24T12:41:10.297Z,8.36
2018-02-24T12:43:38.163Z,8.44
2018-02-24T12:46:06.039Z,9.10
2018-02-24T12:48:33.686Z,9.29
2018-02-24T12:51:01.440Z,8.40
2018-02-24T12:53:28.984Z,8.19
2018-02-24T12:55:56.668Z,8.60
2018-02-24T12:58:24.475Z,9.01
2018-02-24T13:00:52.184Z,8.71
2018-02-24T13:03:22.649Z,7.64
2018-02-24T13:05:50.178Z,8.58
2018-02-24T13:08:17.895Z,8.17
2018-02-24T13:10:45.660Z,6.84
2018-02-24T13:13:14.068Z,7.39
2018-02-24T13:15:42.014Z,8.35
2018-02-24T13:18:09.855Z,8.00
2018-02-24T13:20:37.660Z,7.78
2018-02-24T13:23:05.200Z,7.63
2018-02-24T13:25:33.240Z,9.03
2018-02-24T13:28:00.944Z,8.24
2018-02-24T13:30:28.660Z,8.21
2018-02-24T13:32:56.243Z,7.57
2018-02-24T13:35:24.046Z,6.54
2018-02-24T13:37:51.819Z,7.19
2018-02-24T13:40:20.500Z,7.21
2018-02-24T13:42:48.154Z,8.10
2018-02-24T13:45:15.986Z,7.67
2018-02-24T13:47:43.745Z,6.73
2018-02-24T13:50:11.328Z,7.00
2018-02-24T13:52:39.030Z,7.10
2018-02-24T13:55:06.815Z,6.10
2018-02-24T13:57:34.523Z,6.20
2018-02-24T14:00:02.254Z,6.72
2018-02-24T14:02:29.964Z,7.30
2018-02-24T14:04:57.821Z,6.49
2018-02-24T14:07:25.593Z,6.42
2018-02-24T14:09:53.393Z,6.23
2018-02-24T14:12:21.099Z,7.32
2018-02-24T14:14:49.019Z,7.13
2018-02-24T14:17:16.820Z,7.12
2018-02-24T14:19:44.738Z,8.11
2018-02-24T14:22:12.564Z,7.31
2018-02-24T14:24:40.421Z,7.07
2018-02-24T14:27:08.056Z,6.63
2018-02-24T14:29:35.884Z,6.71
2018-02-24T14:32:03.815Z,6.00
2018-02-24T14:34:31.611Z,6.81
2018-02-24T14:36:59.246Z,6.88
2018-02-24T14:39:27.085Z,6.85
2018-02-24T14:41:54.944Z,6.37
2018-02-24T14:44:22.604Z,5.52
2018-02-24T14:46:50.440Z,5.28
2018-02-24T14:49:18.416Z,4.88
2018-02-24T14:51:46.361Z,5.58
2018-02-24T14:54:14.687Z,5.38
2018-02-24T14:56:42.341Z,4.55
2018-02-24T14:59:10.039Z,4.20
2018-02-24T15:01:37.862Z,4.07
2018-02-24T15:04:05.558Z,4.14
2018-02-24T15:06:33.256Z,3.79
2018-02-24T15:09:00.942Z,3.43
2018-02-24T15:11:28.736Z,3.45
2018-02-24T15:13:56.637Z,3.32
2018-02-24T15:16:24.230Z,3.25
2018-02-24T15:18:52.155Z,3.17
2018-02-24T15:21:19.905Z,3.32
2018-02-24T15:23:47.971Z,3.33
2018-02-24T15:26:15.631Z,3.26
2018-02-24T15:28:43.467Z,2.97
2018-02-24T15:31:11.325Z,3.00
2018-02-24T15:33:39.019Z,2.96
2018-02-24T15:36:07.161Z,2.92
2018-02-24T15:38:34.986Z,2.88
2018-02-24T15:41:02.645Z,2.60
2018-02-24T15:43:30.407Z,2.52
2018-02-24T15:45:58.450Z,2.42
2018-02-24T15:48:26.125Z,2.64
2018-02-24T15:50:53.851Z,2.38
2018-02-24T15:53:21.851Z,2.31
2018-02-24T15:55:49.510Z,2.28
2018-02-24T15:58:18.072Z,2.20
2018-02-24T16:00:45.864Z,2.18
2018-02-24T16:03:13.629Z,2.25
2018-02-24T16:05:41.366Z,2.13
2018-02-24T16:08:09.020Z,2.08
2018-02-24T16:10:36.554Z,1.97
2018-02-24T16:13:04.194Z,1.84
2018-02-24T16:15:31.866Z,1.71
2018-02-24T16:17:59.726Z,1.69
2018-02-24T16:20:27.639Z,1.65
2018-02-24T16:22:55.394Z,1.58
2018-02-24T16:25:22.931Z,1.53
2018-02-24T16:27:50.696Z,1.48
2018-02-24T16:30:18.445Z,1.39
2018-02-24T16:32:46.030Z,1.39
2018-02-24T16:35:13.824Z,1.35
2018-02-24T16:37:41.534Z,1.40
2018-02-24T16:40:09.371Z,1.22
2018-02-24T16:42:37.358Z,1.19
2018-02-24T16:45:05.255Z,1.18
2018-02-24T16:47:33.099Z,1.08
2018-02-24T16:50:00.967Z,0.98
2018-02-24T16:52:28.797Z,1.15
2018-02-24T16:54:56.545Z,0.96
2018-02-24T16:57:24.404Z,0.98
2018-02-24T16:59:52.075Z,0.87
2018-02-24T17:02:19.870Z,0.95
2018-02-24T17:04:47.495Z,0.79
2018-02-24T17:07:15.351Z,0.67
2018-02-24T17:09:42.920Z,0.70
2018-02-24T17:12:10.823Z,0.67
2018-02-24T17:14:38.366Z,0.67
2018-02-24T17:17:05.913Z,0.60
2018-02-24T17:19:33.590Z,0.57
2018-02-24T17:22:01.215Z,0.49
2018-02-24T17:24:28.946Z,0.44
2018-02-24T17:26:56.595Z,0.40
2018-02-24T17:29:24.341Z,0.37
2018-02-24T17:31:52.151Z,0.37
2018-02-24T17:34:19.990Z,0.38
2018-02-24T17:36:47.549Z,0.27
2018-02-24T17:39:15.531Z,0.27
2018-02-24T17:41:43.237Z,0.11
2018-02-24T17:44:11.186Z,0.19
2018-02-24T17:46:38.749Z,0.20
2018-02-24T17:49:06.618Z,0.24
2018-02-24T17:51:34.914Z,0.12
2018-02-24T17:54:02.750Z,0.09
2018-02-24T17:56:30.590Z,-0.01
2018-02-24T17:58:58.338Z,0.03
2018-02-24T18:01:25.921Z,0.01
2018-02-24T18:03:53.476Z,-0.01
2018-02-24T18:06:21.245Z,-0.16
2018-02-24T18:08:48.866Z,-0.16
2018-02-24T18:11:16.539Z,-0.27
2018-02-24T18:13:44.138Z,-0.25
2018-02-24T18:16:11.870Z,-0.27
2018-02-24T18:18:39.394Z,-0.29
2018-02-24T18:21:07.374Z,-0.37
2018-02-24T18:23:35.194Z,-0.37
2018-02-24T18:26:03.434Z,-0.35
2018-02-24T18:28:31.092Z,-0.35
2018-02-24T18:30:58.949Z,-0.40
2018-02-24T18:33:27.449Z,-0.42
2018-02-24T18:35:55.171Z,-0.45
2018-02-24T18:38:22.910Z,-0.54
2018-02-24T18:40:50.581Z,-0.45
2018-02-24T18:43:18.471Z,-0.59
2018-02-24T18:45:46.910Z,-0.69
2018-02-24T18:48:14.711Z,-0.68
2018-02-24T18:50:42.321Z,-0.60
2018-02-24T18:53:10.004Z,-0.68
2018-02-24T18:55:37.764Z,-0.76
2018-02-24T18:58:05.431Z,-0.78
2018-02-24T19:00:32.991Z,-0.75
2018-02-24T19:03:00.616Z,-0.82
2018-02-24T19:05:28.261Z,-0.92
2018-02-24T19:07:55.859Z,-0.93
2018-02-24T19:10:23.574Z,-0.94
2018-02-24T19:12:51.252Z,-0.99
2018-02-24T19:15:19.235Z,-0.98
2018-02-24T19:17:47.035Z,-0.97
2018-02-24T19:20:14.834Z,-0.97
2018-02-24T19:22:42.502Z,-1.05
2018-02-24T19:25:10.119Z,-1.08
2018-02-24T19:27:37.897Z,-1.04
2018-02-24T19:30:05.462Z,-1.10
2018-02-24T19:32:33.495Z,-1.11
2018-02-24T19:35:01.681Z,-1.14
2018-02-24T19:37:29.265Z,-1.21
2018-02-24T19:39:56.844Z,-1.16
2018-02-24T19:42:24.516Z,-1.19
2018-02-24T19:44:52.233Z,-1.16
2018-02-24T19:47:20.046Z,-1.13
2018-02-24T19:49:47.611Z,-1.25
2018-02-24T19:52:15.305Z,-1.20
2018-02-24T19:54:43.175Z,-1.26
2018-02-24T19:57:10.777Z,-1.25
2018-02-24T19:59:38.566Z,-1.24
2018-02-24T20:02:06.370Z,-1.30
2018-02-24T20:04:34.395Z,-1.27
2018-02-24T20:07:02.117Z,-1.33
2018-02-24T20:09:29.681Z,-1.31
2018-02-24T20:11:57.637Z,-1.37
2018-02-24T20:14:25.455Z,-1.46
2018-02-24T20:16:53.186Z,-1.45
2018-02-24T20:19:21.125Z,-1.40
2018-02-24T20:21:48.893Z,-1.43
2018-02-24T20:24:16.567Z,-1.48
2018-02-24T20:26:44.330Z,-1.52
2018-02-24T20:29:11.957Z,-1.56
2018-02-24T20:31:39.793Z,-1.48
2018-02-24T20:34:07.520Z,-1.62
2018-02-24T20:36:35.256Z,-1.64
2018-02-24T20:39:02.993Z,-1.71
2018-02-24T20:41:30.667Z,-1.79
2018-02-24T20:43:58.467Z,-1.79
2018-02-24T20:46:26.091Z,-1.82
2018-02-24T20:48:53.880Z,-1.88
2018-02-24T20:51:21.545Z,-1.88
2018-02-24T20:53:49.394Z,-1.95
2018-02-24T20:56:16.952Z,-1.92
2018-02-24T20:58:44.600Z,-2.00
2018-02-24T21:01:12.192Z,-1.97
2018-02-24T21:03:40.202Z,-2.05
2018-02-24T21:06:07.959Z,-2.00
2018-02-24T21:08:35.662Z,-1.97
2018-02-24T21:11:03.331Z,-2.07
2018-02-24T21:13:31.145Z,-2.08
2018-02-24T21:15:59.053Z,-2.10
2018-02-24T21:18:26.683Z,-2.16
2018-02-24T21:20:54.716Z,-2.18
2018-02-24T21:23:22.286Z,-2.12
2018-02-24T21:25:49.919Z,-2.15
2018-02-24T21:28:17.579Z,-2.17
2018-02-24T21:30:45.219Z,-2.24
2018-02-24T21:33:12.887Z,-2.25
2018-02-24T21:35:40.696Z,-2.27
2018-02-24T21:38:08.395Z,-2.31
2018-02-24T21:40:36.179Z,-2.36
2018-02-24T21:43:03.771Z,-2.38
2018-02-24T21:45:31.555Z,-2.38
2018-02-24T21:47:59.255Z,-2.42
2018-02-24T21:50:26.837Z,-2.44
2018-02-24T21:52:54.722Z,-2.46
2018-02-24T21:55:22.374Z,-2.48
2018-02-24T21:57:49.920Z,-2.51
2018-02-24T22:00:17.589Z,-2.53
2018-02-24T22:02:45.249Z,-2.50
2018-02-24T22:05:12.887Z,-2.55
2018-02-24T22:07:40.690Z,-2.59
2018-02-24T22:10:08.466Z,-2.62
2018-02-24T22:12:36.323Z,-2.62
2018-02-24T22:15:04.165Z,-2.63
2018-02-24T22:17:31.882Z,-2.69
2018-02-24T22:19:59.470Z,-2.68
2018-02-24T22:22:27.285Z,-2.78
2018-02-24T22:24:54.856Z,-2.78
2018-02-24T22:27:23.424Z,-2.88
2018-02-24T22:29:51.100Z,-2.85
2018-02-24T22:32:18.997Z,-2.87
2018-02-24T22:34:46.669Z,-2.86
2018-02-24T22:37:14.357Z,-2.96
2018-02-24T22:39:42.257Z,-2.87
2018-02-24T22:42:10.260Z,-3.05
2018-02-24T22:44:38.135Z,-3.10
2018-02-24T22:47:06.044Z,-3.14
2018-02-24T22:49:33.652Z,-3.20
2018-02-24T22:52:01.198Z,-3.18
2018-02-24T22:54:29.289Z,-3.20
2018-02-24T23:00:30.051Z,-3.34
2018-02-24T23:02:57.929Z,-3.40
2018-02-24T23:05:26.152Z,-3.43
2018-02-24T23:07:53.869Z,-3.46
2018-02-24T23:10:21.606Z,-3.43
2018-02-24T23:12:49.877Z,-3.48
2018-02-24T23:15:17.665Z,-3.53
2018-02-24T23:17:45.305Z,-3.51
2018-02-24T23:20:12.885Z,-3.59
2018-02-24T23:22:40.491Z,-3.68
2018-02-24T23:25:08.179Z,-3.75
2018-02-24T23:27:35.854Z,-3.80
2018-02-24T23:30:03.945Z,-3.82
2018-02-24T23:32:31.520Z,-3.82
2018-02-24T23:34:59.241Z,-3.90
2018-02-24T23:37:27.032Z,-3.91
2018-02-24T23:39:54.705Z,-4.01
2018-02-24T23:42:22.581Z,-3.97
2018-02-24T23:44:50.168Z,-4.10
2018-02-24T23:47:18.559Z,-4.13
2018-02-24T23:49:46.154Z,-4.14
2018-02-24T23:52:13.864Z,-4.05
2018-02-24T23:54:42.325Z,-4.12
2018-02-24T23:57:10.015Z,-4.19
2018-02-24T23:59:37.617Z,-4.28
